createdAt,value
2022-11-23T00:05:11.433Z,-0.04
2022-11-23T00:13:35.699Z,-0.06
2022-11-23T00:21:57.256Z,-0.08
2022-11-23T00:30:19.459Z,-0.03
2022-11-23T00:38:42.720Z,-0.06
2022-11-23T00:47:04.962Z,-0.13
2022-11-23T00:55:29.257Z,-0.12
2022-11-23T01:03:54.666Z,-0.09
2022-11-23T01:12:16.594Z,-0.14
2022-11-23T01:20:42.061Z,-0.19
2022-11-23T01:29:04.694Z,-0.17
2022-11-23T01:37:27.355Z,-0.12
2022-11-23T01:46:00.401Z,-0.15
2022-11-23T01:54:33.211Z,-0.19
2022-11-23T02:02:57.780Z,-0.20
2022-11-23T02:11:19.881Z,-0.24
2022-11-23T02:20:13.644Z,-0.26
2022-11-23T02:28:45.718Z,-0.23
2022-11-23T02:37:07.988Z,-0.18
2022-11-23T02:45:47.053Z,-0.26
2022-11-23T02:54:08.577Z,-0.33
2022-11-23T03:02:31.452Z,-0.40
2022-11-23T03:10:52.896Z,-0.43
2022-11-23T03:19:15.035Z,-0.47
2022-11-23T03:27:38.329Z,-0.52
2022-11-23T03:36:02.693Z,-0.56
2022-11-23T03:44:28.491Z,-0.56
2022-11-23T03:52:50.214Z,-0.63
2022-11-23T04:01:12.744Z,-0.69
2022-11-23T04:09:38.574Z,-0.72
2022-11-23T04:18:00.318Z,-0.75
2022-11-23T04:26:22.149Z,-0.79
2022-11-23T04:34:43.694Z,-0.80
2022-11-23T04:43:09.388Z,-0.75
2022-11-23T04:51:32.703Z,-0.74
2022-11-23T04:59:55.124Z,-0.73
2022-11-23T05:08:17.627Z,-0.74
2022-11-23T05:16:56.937Z,-0.81
2022-11-23T05:25:20.475Z,-0.82
2022-11-23T05:33:45.674Z,-0.82
2022-11-23T05:42:07.481Z,-0.85
2022-11-23T05:50:35.698Z,-0.92
2022-11-23T05:59:15.918Z,-0.96
2022-11-23T06:07:42.729Z,-1.04
2022-11-23T06:16:07.523Z,-1.12
2022-11-23T06:24:38.889Z,-1.17
2022-11-23T06:33:19.307Z,-1.19
2022-11-23T06:41:44.069Z,-1.17
2022-11-23T06:50:08.678Z,-1.17
2022-11-23T06:58:31.515Z,-1.19
2022-11-23T07:06:55.092Z,-1.15
2022-11-23T07:15:31.270Z,-1.03
2022-11-23T07:23:54.989Z,-0.95
2022-11-23T07:32:16.614Z,-0.97
2022-11-23T07:40:39.486Z,-1.05
2022-11-23T07:49:05.922Z,-1.10
2022-11-23T07:57:27.794Z,-1.11
2022-11-23T08:05:49.408Z,-1.04
2022-11-23T08:14:11.688Z,-1.03
2022-11-23T08:22:33.176Z,-0.95
2022-11-23T08:30:54.695Z,-0.91
2022-11-23T08:39:18.657Z,-0.86
2022-11-23T08:47:40.213Z,-0.78
2022-11-23T08:56:04.067Z,-0.70
2022-11-23T09:04:27.068Z,-0.57
2022-11-23T09:12:49.411Z,-0.52
2022-11-23T09:21:11.037Z,-0.54
2022-11-23T09:29:32.988Z,-0.56
2022-11-23T09:37:56.991Z,-0.60
2022-11-23T09:46:37.258Z,-0.56
2022-11-23T09:55:25.917Z,-0.51
2022-11-23T10:03:49.486Z,-0.41
2022-11-23T10:12:11.219Z,-0.33
2022-11-23T10:21:11.685Z,-0.35
2022-11-23T10:29:37.851Z,-0.36
2022-11-23T10:38:17.001Z,-0.27
2022-11-23T10:46:40.505Z,-0.19
2022-11-23T10:55:05.820Z,-0.18
2022-11-23T11:03:30.859Z,-0.25
2022-11-23T11:11:55.059Z,-0.29
2022-11-23T11:20:33.096Z,-0.33
2022-11-23T11:29:01.070Z,-0.41
2022-11-23T11:37:44.320Z,-0.47
2022-11-23T11:46:29.013Z,-0.43
2022-11-23T11:54:53.677Z,-0.45
2022-11-23T12:03:51.229Z,-0.50
2022-11-23T12:12:25.113Z,-0.50
2022-11-23T12:20:53.439Z,-0.45
2022-11-23T12:29:39.294Z,-0.45
2022-11-23T12:38:28.968Z,-0.59
2022-11-23T12:46:59.845Z,-0.66
2022-11-23T12:55:25.097Z,-0.73
2022-11-23T13:03:50.262Z,-0.76
2022-11-23T13:12:17.988Z,-0.73
2022-11-23T13:21:20.030Z,-0.70
2022-11-23T13:29:45.431Z,-0.75
2022-11-23T13:38:12.996Z,-0.76
2022-11-23T13:46:36.617Z,-0.76
2022-11-23T13:55:11.051Z,-0.77
2022-11-23T14:04:18.615Z,-0.84
2022-11-23T14:12:59.845Z,-0.86
2022-11-23T14:21:57.591Z,-0.88
2022-11-23T14:30:28.318Z,-0.99
2022-11-23T14:39:05.523Z,-1.08
2022-11-23T14:47:30.026Z,-1.13
2022-11-23T14:55:51.770Z,-1.12
2022-11-23T15:04:56.198Z,-1.14
2022-11-23T15:13:28.772Z,-1.19
2022-11-23T15:21:50.594Z,-1.21
2022-11-23T15:30:20.404Z,-1.29
2022-11-23T15:38:42.139Z,-1.36
2022-11-23T15:47:07.244Z,-1.37
2022-11-23T15:55:29.889Z,-1.40
2022-11-23T16:03:55.185Z,-1.54
2022-11-23T16:12:25.361Z,-1.63
2022-11-23T16:20:53.854Z,-1.63
2022-11-23T16:29:29.194Z,-1.64
2022-11-23T16:37:50.824Z,-1.63
2022-11-23T16:46:12.530Z,-1.62
2022-11-23T16:54:34.902Z,-1.68
2022-11-23T17:02:56.955Z,-1.70
2022-11-23T17:11:23.465Z,-1.71
2022-11-23T17:19:47.964Z,-1.75
2022-11-23T17:28:22.104Z,-1.69
2022-11-23T17:36:46.925Z,-1.70
2022-11-23T17:45:10.555Z,-1.82
2022-11-23T17:53:32.068Z,-1.86
2022-11-23T18:01:54.432Z,-1.88
2022-11-23T18:10:16.294Z,-1.95
2022-11-23T18:18:38.552Z,-1.93
2022-11-23T18:27:00.213Z,-1.88
2022-11-23T18:35:22.199Z,-1.87
2022-11-23T18:43:44.026Z,-1.86
2022-11-23T18:52:05.662Z,-1.85
2022-11-23T19:00:28.552Z,-1.87
2022-11-23T19:08:56.924Z,-1.91
2022-11-23T19:17:19.157Z,-1.92
2022-11-23T19:25:41.004Z,-1.94
2022-11-23T19:34:05.427Z,-1.97
2022-11-23T19:42:26.984Z,-2.01
2022-11-23T19:51:13.005Z,-2.09
2022-11-23T19:59:34.806Z,-2.12
2022-11-23T20:07:57.610Z,-2.12
2022-11-23T20:16:20.908Z,-2.18
2022-11-23T20:24:42.629Z,-2.19
2022-11-23T20:33:04.246Z,-2.14
2022-11-23T20:41:28.928Z,-2.18
2022-11-23T20:49:50.405Z,-2.16
2022-11-23T20:58:12.643Z,-2.19
2022-11-23T21:06:38.654Z,-2.22
2022-11-23T21:15:02.002Z,-2.24
2022-11-23T21:23:23.470Z,-2.27
2022-11-23T21:31:46.853Z,-2.28
2022-11-23T21:40:09.086Z,-2.29
2022-11-23T21:48:32.636Z,-2.25
2022-11-23T21:56:54.728Z,-2.24
2022-11-23T22:05:16.354Z,-2.26
2022-11-23T22:13:39.133Z,-2.26
2022-11-23T22:22:00.761Z,-2.23
2022-11-23T22:30:22.268Z,-2.21
2022-11-23T22:38:46.402Z,-2.20
2022-11-23T22:47:07.976Z,-2.18
2022-11-23T22:55:31.161Z,-2.25
2022-11-23T23:03:57.689Z,-2.29
2022-11-23T23:12:19.318Z,-2.24
2022-11-23T23:20:41.448Z,-2.24
2022-11-23T23:29:03.998Z,-2.20
2022-11-23T23:37:25.544Z,-2.12
2022-11-23T23:45:47.022Z,-2.15
2022-11-23T23:54:08.644Z,-2.13
